sensor_id;sensor_type;location;lat;lon;timestamp;P1;durP1;ratioP1;P2;durP2;ratioP2
21501;SDS011;27639;48.674;9.242;2023-06-22T00:01:57;11.05;;;8.88;;
21501;SDS011;27639;48.674;9.242;2023-06-22T00:04:24;14.00;;;9.98;;
21501;SDS011;27639;48.674;9.242;2023-06-22T00:06:49;10.02;;;8.75;;
21501;SDS011;27639;48.674;9.242;2023-06-22T00:09:15;11.48;;;9.45;;
21501;SDS011;27639;48.674;9.242;2023-06-22T00:11:40;11.30;;;9.90;;
21501;SDS011;27639;48.674;9.242;2023-06-22T00:14:06;11.10;;;9.90;;
21501;SDS011;27639;48.674;9.242;2023-06-22T00:16:32;13.90;;;9.88;;
21501;SDS011;27639;48.674;9.242;2023-06-22T00:18:58;10.35;;;8.98;;
21501;SDS011;27639;48.674;9.242;2023-06-22T00:21:28;12.18;;;8.63;;
21501;SDS011;27639;48.674;9.242;2023-06-22T00:23:54;10.18;;;8.48;;
21501;SDS011;27639;48.674;9.242;2023-06-22T00:26:20;11.90;;;9.18;;
21501;SDS011;27639;48.674;9.242;2023-06-22T00:28:46;12.40;;;9.68;;
21501;SDS011;27639;48.674;9.242;2023-06-22T00:31:12;10.60;;;8.93;;
21501;SDS011;27639;48.674;9.242;2023-06-22T00:33:38;10.70;;;8.20;;
21501;SDS011;27639;48.674;9.242;2023-06-22T00:36:04;11.25;;;9.00;;
21501;SDS011;27639;48.674;9.242;2023-06-22T00:38:32;10.35;;;8.38;;
21501;SDS011;27639;48.674;9.242;2023-06-22T00:40:58;11.23;;;9.45;;
21501;SDS011;27639;48.674;9.242;2023-06-22T00:43:24;12.30;;;9.77;;
21501;SDS011;27639;48.674;9.242;2023-06-22T00:45:49;10.73;;;9.02;;
21501;SDS011;27639;48.674;9.242;2023-06-22T00:48:15;9.77;;;8.65;;
21501;SDS011;27639;48.674;9.242;2023-06-22T00:50:41;9.65;;;7.85;;
21501;SDS011;27639;48.674;9.242;2023-06-22T00:53:08;11.05;;;8.63;;
21501;SDS011;27639;48.674;9.242;2023-06-22T00:55:38;12.18;;;8.57;;
21501;SDS011;27639;48.674;9.242;2023-06-22T00:58:10;12.38;;;8.23;;
21501;SDS011;27639;48.674;9.242;2023-06-22T01:00:37;9.93;;;8.32;;
21501;SDS011;27639;48.674;9.242;2023-06-22T01:03:03;10.45;;;8.48;;
21501;SDS011;27639;48.674;9.242;2023-06-22T01:05:33;10.30;;;8.10;;
21501;SDS011;27639;48.674;9.242;2023-06-22T01:16:19;9.73;;;8.48;;
21501;SDS011;27639;48.674;9.242;2023-06-22T01:18:49;10.93;;;8.82;;
21501;SDS011;27639;48.674;9.242;2023-06-22T01:21:18;12.45;;;9.82;;
21501;SDS011;27639;48.674;9.242;2023-06-22T01:24:30;10.82;;;9.35;;
21501;SDS011;27639;48.674;9.242;2023-06-22T01:29:51;13.45;;;9.35;;
21501;SDS011;27639;48.674;9.242;2023-06-22T01:32:25;10.88;;;8.82;;
21501;SDS011;27639;48.674;9.242;2023-06-22T01:35:01;11.55;;;9.85;;
21501;SDS011;27639;48.674;9.242;2023-06-22T01:37:30;11.73;;;10.02;;
21501;SDS011;27639;48.674;9.242;2023-06-22T01:39:57;10.73;;;9.15;;
21501;SDS011;27639;48.674;9.242;2023-06-22T01:42:24;12.73;;;9.63;;
21501;SDS011;27639;48.674;9.242;2023-06-22T01:44:50;12.93;;;9.65;;
21501;SDS011;27639;48.674;9.242;2023-06-22T01:47:20;13.60;;;9.60;;
21501;SDS011;27639;48.674;9.242;2023-06-22T01:49:47;11.82;;;9.40;;
21501;SDS011;27639;48.674;9.242;2023-06-22T01:52:14;12.32;;;10.30;;
21501;SDS011;27639;48.674;9.242;2023-06-22T01:54:41;10.60;;;9.13;;
21501;SDS011;27639;48.674;9.242;2023-06-22T01:57:07;12.60;;;9.02;;
21501;SDS011;27639;48.674;9.242;2023-06-22T01:59:34;10.95;;;9.10;;
21501;SDS011;27639;48.674;9.242;2023-06-22T02:02:06;14.63;;;10.07;;
21501;SDS011;27639;48.674;9.242;2023-06-22T02:04:36;11.55;;;9.32;;
21501;SDS011;27639;48.674;9.242;2023-06-22T02:07:09;12.10;;;9.00;;
21501;SDS011;27639;48.674;9.242;2023-06-22T02:09:38;11.25;;;9.30;;
21501;SDS011;27639;48.674;9.242;2023-06-22T02:12:09;14.00;;;9.45;;
21501;SDS011;27639;48.674;9.242;2023-06-22T02:14:36;13.15;;;9.80;;
21501;SDS011;27639;48.674;9.242;2023-06-22T02:17:02;11.85;;;9.85;;
21501;SDS011;27639;48.674;9.242;2023-06-22T02:19:32;12.13;;;9.57;;
21501;SDS011;27639;48.674;9.242;2023-06-22T02:22:01;12.85;;;9.75;;
21501;SDS011;27639;48.674;9.242;2023-06-22T02:24:26;11.23;;;9.02;;
21501;SDS011;27639;48.674;9.242;2023-06-22T02:26:52;12.10;;;9.23;;
21501;SDS011;27639;48.674;9.242;2023-06-22T02:29:17;13.75;;;9.13;;
21501;SDS011;27639;48.674;9.242;2023-06-22T02:31:43;13.05;;;9.50;;
21501;SDS011;27639;48.674;9.242;2023-06-22T02:34:09;10.98;;;9.73;;
21501;SDS011;27639;48.674;9.242;2023-06-22T02:36:34;15.30;;;9.18;;
21501;SDS011;27639;48.674;9.242;2023-06-22T02:39:00;12.43;;;10.07;;
21501;SDS011;27639;48.674;9.242;2023-06-22T02:41:26;12.80;;;8.98;;
21501;SDS011;27639;48.674;9.242;2023-06-22T02:43:52;9.90;;;8.07;;
21501;SDS011;27639;48.674;9.242;2023-06-22T02:46:18;14.93;;;9.88;;
21501;SDS011;27639;48.674;9.242;2023-06-22T02:48:43;13.30;;;9.27;;
21501;SDS011;27639;48.674;9.242;2023-06-22T02:51:09;12.52;;;9.45;;
21501;SDS011;27639;48.674;9.242;2023-06-22T02:53:35;10.50;;;9.38;;
21501;SDS011;27639;48.674;9.242;2023-06-22T02:56:01;10.82;;;8.30;;
21501;SDS011;27639;48.674;9.242;2023-06-22T02:58:30;10.23;;;8.48;;
21501;SDS011;27639;48.674;9.242;2023-06-22T03:01:03;14.77;;;10.27;;
21501;SDS011;27639;48.674;9.242;2023-06-22T03:03:29;11.85;;;9.18;;
21501;SDS011;27639;48.674;9.242;2023-06-22T03:05:55;12.32;;;9.90;;
21501;SDS011;27639;48.674;9.242;2023-06-22T03:08:21;12.13;;;9.68;;
21501;SDS011;27639;48.674;9.242;2023-06-22T03:10:46;11.90;;;8.57;;
21501;SDS011;27639;48.674;9.242;2023-06-22T03:13:12;10.48;;;8.98;;
21501;SDS011;27639;48.674;9.242;2023-06-22T03:15:37;13.77;;;9.55;;
21501;SDS011;27639;48.674;9.242;2023-06-22T03:18:04;11.02;;;9.32;;
21501;SDS011;27639;48.674;9.242;2023-06-22T03:20:30;12.32;;;10.00;;
21501;SDS011;27639;48.674;9.242;2023-06-22T03:22:58;12.95;;;9.75;;
21501;SDS011;27639;48.674;9.242;2023-06-22T03:25:24;11.70;;;8.55;;
21501;SDS011;27639;48.674;9.242;2023-06-22T03:27:49;12.93;;;8.98;;
21501;SDS011;27639;48.674;9.242;2023-06-22T03:30:15;10.90;;;8.68;;
21501;SDS011;27639;48.674;9.242;2023-06-22T03:32:40;12.63;;;8.85;;
21501;SDS011;27639;48.674;9.242;2023-06-22T03:35:07;15.32;;;9.45;;
21501;SDS011;27639;48.674;9.242;2023-06-22T03:37:33;10.93;;;8.63;;
21501;SDS011;27639;48.674;9.242;2023-06-22T03:39:59;15.05;;;9.88;;
21501;SDS011;27639;48.674;9.242;2023-06-22T03:42:25;12.77;;;9.60;;
21501;SDS011;27639;48.674;9.242;2023-06-22T03:44:51;12.93;;;9.70;;
21501;SDS011;27639;48.674;9.242;2023-06-22T03:47:16;11.30;;;9.38;;
21501;SDS011;27639;48.674;9.242;2023-06-22T03:49:42;11.43;;;9.43;;
21501;SDS011;27639;48.674;9.242;2023-06-22T03:52:08;11.93;;;9.45;;
21501;SDS011;27639;48.674;9.242;2023-06-22T03:54:35;12.98;;;10.48;;
21501;SDS011;27639;48.674;9.242;2023-06-22T03:57:01;12.30;;;9.90;;
21501;SDS011;27639;48.674;9.242;2023-06-22T03:59:27;13.82;;;10.43;;
21501;SDS011;27639;48.674;9.242;2023-06-22T04:01:52;16.65;;;10.68;;
21501;SDS011;27639;48.674;9.242;2023-06-22T04:04:18;17.80;;;10.82;;
21501;SDS011;27639;48.674;9.242;2023-06-22T04:06:43;15.82;;;10.95;;
21501;SDS011;27639;48.674;9.242;2023-06-22T04:09:09;15.45;;;11.15;;
21501;SDS011;27639;48.674;9.242;2023-06-22T04:11:35;18.50;;;11.05;;
21501;SDS011;27639;48.674;9.242;2023-06-22T04:14:00;15.82;;;11.70;;
21501;SDS011;27639;48.674;9.242;2023-06-22T04:16:26;13.98;;;10.95;;
21501;SDS011;27639;48.674;9.242;2023-06-22T04:18:52;15.00;;;10.93;;
21501;SDS011;27639;48.674;9.242;2023-06-22T04:21:17;16.02;;;12.43;;
21501;SDS011;27639;48.674;9.242;2023-06-22T04:23:44;16.00;;;11.20;;
21501;SDS011;27639;48.674;9.242;2023-06-22T04:26:11;16.98;;;11.05;;
21501;SDS011;27639;48.674;9.242;2023-06-22T04:28:36;17.10;;;12.32;;
21501;SDS011;27639;48.674;9.242;2023-06-22T04:31:02;15.25;;;11.70;;
21501;SDS011;27639;48.674;9.242;2023-06-22T04:33:28;15.55;;;11.30;;
21501;SDS011;27639;48.674;9.242;2023-06-22T04:35:55;15.68;;;9.85;;
21501;SDS011;27639;48.674;9.242;2023-06-22T04:38:25;12.25;;;10.23;;
21501;SDS011;27639;48.674;9.242;2023-06-22T04:40:51;14.82;;;10.27;;
21501;SDS011;27639;48.674;9.242;2023-06-22T04:43:18;13.68;;;10.00;;
21501;SDS011;27639;48.674;9.242;2023-06-22T04:45:44;16.25;;;11.07;;
21501;SDS011;27639;48.674;9.242;2023-06-22T04:48:09;12.25;;;9.68;;
21501;SDS011;27639;48.674;9.242;2023-06-22T04:50:37;16.00;;;10.38;;
21501;SDS011;27639;48.674;9.242;2023-06-22T04:53:04;13.23;;;9.77;;
21501;SDS011;27639;48.674;9.242;2023-06-22T04:55:31;13.80;;;9.90;;
21501;SDS011;27639;48.674;9.242;2023-06-22T04:57:56;12.23;;;9.57;;
21501;SDS011;27639;48.674;9.242;2023-06-22T05:00:29;13.38;;;9.82;;
21501;SDS011;27639;48.674;9.242;2023-06-22T05:02:55;13.52;;;9.50;;
21501;SDS011;27639;48.674;9.242;2023-06-22T05:05:22;13.35;;;9.80;;
21501;SDS011;27639;48.674;9.242;2023-06-22T05:07:49;14.50;;;9.40;;
21501;SDS011;27639;48.674;9.242;2023-06-22T05:10:18;13.63;;;9.75;;
21501;SDS011;27639;48.674;9.242;2023-06-22T05:12:44;14.75;;;9.93;;
21501;SDS011;27639;48.674;9.242;2023-06-22T05:15:11;14.48;;;9.35;;
21501;SDS011;27639;48.674;9.242;2023-06-22T05:17:37;10.43;;;8.90;;
21501;SDS011;27639;48.674;9.242;2023-06-22T05:20:08;13.70;;;9.90;;
21501;SDS011;27639;48.674;9.242;2023-06-22T05:22:35;11.88;;;9.02;;
21501;SDS011;27639;48.674;9.242;2023-06-22T05:25:00;11.77;;;8.52;;
21501;SDS011;27639;48.674;9.242;2023-06-22T05:27:26;13.68;;;9.50;;
21501;SDS011;27639;48.674;9.242;2023-06-22T05:29:52;13.27;;;8.98;;
21501;SDS011;27639;48.674;9.242;2023-06-22T05:32:17;12.55;;;8.63;;
21501;SDS011;27639;48.674;9.242;2023-06-22T05:34:43;10.75;;;7.97;;
21501;SDS011;27639;48.674;9.242;2023-06-22T05:37:09;12.65;;;7.55;;
21501;SDS011;27639;48.674;9.242;2023-06-22T05:39:35;12.20;;;7.35;;
21501;SDS011;27639;48.674;9.242;2023-06-22T05:42:03;10.85;;;6.90;;
21501;SDS011;27639;48.674;9.242;2023-06-22T05:44:30;9.55;;;7.70;;
21501;SDS011;27639;48.674;9.242;2023-06-22T05:46:56;9.65;;;7.10;;
21501;SDS011;27639;48.674;9.242;2023-06-22T05:49:21;9.70;;;7.13;;
21501;SDS011;27639;48.674;9.242;2023-06-22T05:51:48;11.73;;;7.88;;
21501;SDS011;27639;48.674;9.242;2023-06-22T05:54:13;11.18;;;7.25;;
21501;SDS011;27639;48.674;9.242;2023-06-22T05:56:40;10.55;;;6.88;;
21501;SDS011;27639;48.674;9.242;2023-06-22T05:59:06;10.50;;;6.35;;
21501;SDS011;27639;48.674;9.242;2023-06-22T06:01:31;8.77;;;6.07;;
21501;SDS011;27639;48.674;9.242;2023-06-22T06:04:01;9.95;;;6.05;;
21501;SDS011;27639;48.674;9.242;2023-06-22T06:06:28;8.52;;;5.78;;
21501;SDS011;27639;48.674;9.242;2023-06-22T06:08:54;9.30;;;6.07;;
21501;SDS011;27639;48.674;9.242;2023-06-22T06:11:21;6.90;;;5.55;;
21501;SDS011;27639;48.674;9.242;2023-06-22T06:13:46;9.77;;;6.03;;
21501;SDS011;27639;48.674;9.242;2023-06-22T06:16:12;8.55;;;5.40;;
21501;SDS011;27639;48.674;9.242;2023-06-22T06:18:38;6.80;;;5.57;;
21501;SDS011;27639;48.674;9.242;2023-06-22T06:21:03;7.53;;;5.38;;
21501;SDS011;27639;48.674;9.242;2023-06-22T06:23:29;8.60;;;5.90;;
21501;SDS011;27639;48.674;9.242;2023-06-22T06:25:54;10.30;;;5.88;;
21501;SDS011;27639;48.674;9.242;2023-06-22T06:28:20;9.50;;;5.13;;
21501;SDS011;27639;48.674;9.242;2023-06-22T06:30:46;10.27;;;6.18;;
21501;SDS011;27639;48.674;9.242;2023-06-22T06:33:12;9.43;;;5.93;;
21501;SDS011;27639;48.674;9.242;2023-06-22T06:35:38;9.88;;;5.05;;
21501;SDS011;27639;48.674;9.242;2023-06-22T06:38:03;8.30;;;5.47;;
21501;SDS011;27639;48.674;9.242;2023-06-22T06:40:29;8.77;;;4.82;;
21501;SDS011;27639;48.674;9.242;2023-06-22T06:42:55;9.23;;;5.38;;
21501;SDS011;27639;48.674;9.242;2023-06-22T06:45:21;8.10;;;5.35;;
21501;SDS011;27639;48.674;9.242;2023-06-22T06:47:48;10.43;;;5.22;;
21501;SDS011;27639;48.674;9.242;2023-06-22T06:50:15;7.35;;;5.05;;
21501;SDS011;27639;48.674;9.242;2023-06-22T06:52:41;8.90;;;5.95;;
21501;SDS011;27639;48.674;9.242;2023-06-22T06:55:07;6.65;;;4.50;;
21501;SDS011;27639;48.674;9.242;2023-06-22T06:57:36;6.78;;;4.32;;
21501;SDS011;27639;48.674;9.242;2023-06-22T07:00:03;8.25;;;5.20;;
21501;SDS011;27639;48.674;9.242;2023-06-22T07:02:36;7.68;;;5.25;;
21501;SDS011;27639;48.674;9.242;2023-06-22T07:05:02;8.30;;;4.90;;
21501;SDS011;27639;48.674;9.242;2023-06-22T07:07:29;8.98;;;5.38;;
21501;SDS011;27639;48.674;9.242;2023-06-22T07:09:55;7.45;;;4.82;;
21501;SDS011;27639;48.674;9.242;2023-06-22T07:12:20;8.77;;;4.88;;
21501;SDS011;27639;48.674;9.242;2023-06-22T07:14:46;8.13;;;4.53;;
21501;SDS011;27639;48.674;9.242;2023-06-22T07:17:12;10.45;;;4.90;;
21501;SDS011;27639;48.674;9.242;2023-06-22T07:19:37;7.90;;;5.20;;
21501;SDS011;27639;48.674;9.242;2023-06-22T07:22:03;7.60;;;4.40;;
21501;SDS011;27639;48.674;9.242;2023-06-22T07:24:29;6.70;;;4.35;;
21501;SDS011;27639;48.674;9.242;2023-06-22T07:26:55;8.38;;;4.80;;
21501;SDS011;27639;48.674;9.242;2023-06-22T07:29:24;10.20;;;4.72;;
21501;SDS011;27639;48.674;9.242;2023-06-22T07:31:50;7.70;;;4.30;;
21501;SDS011;27639;48.674;9.242;2023-06-22T07:34:21;9.05;;;4.00;;
21501;SDS011;27639;48.674;9.242;2023-06-22T07:36:47;7.13;;;3.85;;
21501;SDS011;27639;48.674;9.242;2023-06-22T07:39:13;8.07;;;4.32;;
21501;SDS011;27639;48.674;9.242;2023-06-22T07:41:39;9.52;;;4.13;;
21501;SDS011;27639;48.674;9.242;2023-06-22T07:44:08;8.98;;;4.45;;
21501;SDS011;27639;48.674;9.242;2023-06-22T07:46:33;9.48;;;4.72;;
21501;SDS011;27639;48.674;9.242;2023-06-22T07:48:59;7.60;;;4.90;;
21501;SDS011;27639;48.674;9.242;2023-06-22T07:51:26;7.90;;;4.90;;
21501;SDS011;27639;48.674;9.242;2023-06-22T07:53:52;9.23;;;5.10;;
21501;SDS011;27639;48.674;9.242;2023-06-22T07:56:17;9.45;;;4.60;;
21501;SDS011;27639;48.674;9.242;2023-06-22T07:58:46;9.32;;;4.78;;
21501;SDS011;27639;48.674;9.242;2023-06-22T08:01:13;8.13;;;5.13;;
21501;SDS011;27639;48.674;9.242;2023-06-22T08:03:39;10.70;;;5.00;;
21501;SDS011;27639;48.674;9.242;2023-06-22T08:06:04;10.80;;;4.63;;
21501;SDS011;27639;48.674;9.242;2023-06-22T08:08:30;7.43;;;4.03;;
21501;SDS011;27639;48.674;9.242;2023-06-22T08:10:56;10.38;;;5.03;;
21501;SDS011;27639;48.674;9.242;2023-06-22T08:13:22;10.60;;;5.40;;
21501;SDS011;27639;48.674;9.242;2023-06-22T08:15:47;8.88;;;4.50;;
21501;SDS011;27639;48.674;9.242;2023-06-22T08:18:13;8.25;;;4.78;;
21501;SDS011;27639;48.674;9.242;2023-06-22T08:20:39;9.70;;;4.95;;
21501;SDS011;27639;48.674;9.242;2023-06-22T08:23:04;8.35;;;5.03;;
21501;SDS011;27639;48.674;9.242;2023-06-22T08:25:34;11.77;;;5.40;;
21501;SDS011;27639;48.674;9.242;2023-06-22T08:28:03;10.80;;;5.03;;
21501;SDS011;27639;48.674;9.242;2023-06-22T08:30:29;10.25;;;4.82;;
21501;SDS011;27639;48.674;9.242;2023-06-22T08:32:55;10.40;;;5.50;;
21501;SDS011;27639;48.674;9.242;2023-06-22T08:35:24;8.27;;;4.97;;
21501;SDS011;27639;48.674;9.242;2023-06-22T08:37:50;8.02;;;5.05;;
21501;SDS011;27639;48.674;9.242;2023-06-22T08:40:19;11.75;;;5.65;;
21501;SDS011;27639;48.674;9.242;2023-06-22T08:42:46;6.97;;;4.82;;
21501;SDS011;27639;48.674;9.242;2023-06-22T08:45:12;10.30;;;6.03;;
21501;SDS011;27639;48.674;9.242;2023-06-22T08:47:39;10.57;;;5.72;;
21501;SDS011;27639;48.674;9.242;2023-06-22T08:50:06;10.63;;;5.50;;
21501;SDS011;27639;48.674;9.242;2023-06-22T08:52:33;10.48;;;5.63;;
21501;SDS011;27639;48.674;9.242;2023-06-22T08:54:59;8.40;;;5.22;;
21501;SDS011;27639;48.674;9.242;2023-06-22T08:57:25;13.35;;;5.50;;
21501;SDS011;27639;48.674;9.242;2023-06-22T08:59:50;8.52;;;5.55;;
21501;SDS011;27639;48.674;9.242;2023-06-22T09:02:23;12.77;;;5.65;;
21501;SDS011;27639;48.674;9.242;2023-06-22T09:04:49;10.05;;;5.80;;
21501;SDS011;27639;48.674;9.242;2023-06-22T09:07:21;9.07;;;4.97;;
21501;SDS011;27639;48.674;9.242;2023-06-22T09:09:48;11.20;;;5.65;;
21501;SDS011;27639;48.674;9.242;2023-06-22T09:12:14;10.27;;;5.85;;
21501;SDS011;27639;48.674;9.242;2023-06-22T09:14:39;8.65;;;5.60;;
21501;SDS011;27639;48.674;9.242;2023-06-22T09:17:05;8.50;;;5.57;;
21501;SDS011;27639;48.674;9.242;2023-06-22T09:19:30;9.00;;;5.80;;
21501;SDS011;27639;48.674;9.242;2023-06-22T09:21:56;10.02;;;5.40;;
21501;SDS011;27639;48.674;9.242;2023-06-22T09:24:22;10.45;;;5.80;;
21501;SDS011;27639;48.674;9.242;2023-06-22T09:26:47;10.77;;;6.72;;
21501;SDS011;27639;48.674;9.242;2023-06-22T09:29:13;12.38;;;5.20;;
21501;SDS011;27639;48.674;9.242;2023-06-22T09:31:39;9.98;;;6.00;;
21501;SDS011;27639;48.674;9.242;2023-06-22T09:34:04;11.98;;;5.60;;
21501;SDS011;27639;48.674;9.242;2023-06-22T09:36:30;9.32;;;5.30;;
21501;SDS011;27639;48.674;9.242;2023-06-22T09:38:56;9.60;;;5.50;;
21501;SDS011;27639;48.674;9.242;2023-06-22T09:41:23;10.65;;;5.38;;
21501;SDS011;27639;48.674;9.242;2023-06-22T09:43:49;9.25;;;5.78;;
21501;SDS011;27639;48.674;9.242;2023-06-22T09:46:16;7.38;;;5.25;;
21501;SDS011;27639;48.674;9.242;2023-06-22T09:48:42;11.32;;;6.20;;
21501;SDS011;27639;48.674;9.242;2023-06-22T09:51:07;10.65;;;5.85;;
21501;SDS011;27639;48.674;9.242;2023-06-22T09:53:33;9.50;;;5.40;;
21501;SDS011;27639;48.674;9.242;2023-06-22T09:55:59;9.52;;;5.80;;
21501;SDS011;27639;48.674;9.242;2023-06-22T09:58:26;12.13;;;6.88;;
21501;SDS011;27639;48.674;9.242;2023-06-22T10:00:51;11.18;;;5.60;;
21501;SDS011;27639;48.674;9.242;2023-06-22T10:03:18;13.55;;;5.90;;
21501;SDS011;27639;48.674;9.242;2023-06-22T10:05:43;11.85;;;6.20;;
21501;SDS011;27639;48.674;9.242;2023-06-22T10:08:09;12.68;;;7.55;;
21501;SDS011;27639;48.674;9.242;2023-06-22T10:10:35;13.75;;;6.30;;
21501;SDS011;27639;48.674;9.242;2023-06-22T10:13:03;10.02;;;6.50;;
21501;SDS011;27639;48.674;9.242;2023-06-22T10:15:37;8.98;;;5.97;;
21501;SDS011;27639;48.674;9.242;2023-06-22T10:18:03;9.35;;;5.55;;
21501;SDS011;27639;48.674;9.242;2023-06-22T10:20:28;9.70;;;6.03;;
21501;SDS011;27639;48.674;9.242;2023-06-22T10:22:54;13.65;;;6.95;;
21501;SDS011;27639;48.674;9.242;2023-06-22T10:25:21;14.55;;;6.25;;
21501;SDS011;27639;48.674;9.242;2023-06-22T10:27:47;10.88;;;6.20;;
21501;SDS011;27639;48.674;9.242;2023-06-22T10:30:13;12.07;;;5.97;;
21501;SDS011;27639;48.674;9.242;2023-06-22T10:32:39;10.23;;;5.88;;
21501;SDS011;27639;48.674;9.242;2023-06-22T10:35:05;10.23;;;5.60;;
21501;SDS011;27639;48.674;9.242;2023-06-22T10:37:30;11.13;;;6.10;;
21501;SDS011;27639;48.674;9.242;2023-06-22T10:39:56;11.57;;;6.10;;
21501;SDS011;27639;48.674;9.242;2023-06-22T10:42:22;9.60;;;5.50;;
21501;SDS011;27639;48.674;9.242;2023-06-22T10:44:48;9.77;;;5.53;;
21501;SDS011;27639;48.674;9.242;2023-06-22T10:47:13;12.63;;;5.70;;
21501;SDS011;27639;48.674;9.242;2023-06-22T10:49:39;11.38;;;5.97;;
21501;SDS011;27639;48.674;9.242;2023-06-22T10:52:08;9.13;;;5.63;;
21501;SDS011;27639;48.674;9.242;2023-06-22T10:54:34;13.45;;;6.05;;
21501;SDS011;27639;48.674;9.242;2023-06-22T10:57:02;11.02;;;6.13;;
21501;SDS011;27639;48.674;9.242;2023-06-22T10:59:28;13.63;;;6.32;;
21501;SDS011;27639;48.674;9.242;2023-06-22T11:01:55;11.30;;;5.70;;
21501;SDS011;27639;48.674;9.242;2023-06-22T11:04:21;11.98;;;5.95;;
21501;SDS011;27639;48.674;9.242;2023-06-22T11:06:48;11.80;;;6.80;;
21501;SDS011;27639;48.674;9.242;2023-06-22T11:09:14;12.75;;;6.65;;
21501;SDS011;27639;48.674;9.242;2023-06-22T11:11:45;12.05;;;6.53;;
21501;SDS011;27639;48.674;9.242;2023-06-22T11:14:11;9.18;;;6.30;;
21501;SDS011;27639;48.674;9.242;2023-06-22T11:16:36;7.85;;;5.32;;
21501;SDS011;27639;48.674;9.242;2023-06-22T11:19:02;11.05;;;6.38;;
21501;SDS011;27639;48.674;9.242;2023-06-22T11:21:29;10.65;;;6.15;;
21501;SDS011;27639;48.674;9.242;2023-06-22T11:23:56;14.10;;;6.00;;
21501;SDS011;27639;48.674;9.242;2023-06-22T11:26:22;11.00;;;5.90;;
21501;SDS011;27639;48.674;9.242;2023-06-22T11:28:47;13.88;;;5.88;;
21501;SDS011;27639;48.674;9.242;2023-06-22T11:31:13;10.10;;;5.45;;
21501;SDS011;27639;48.674;9.242;2023-06-22T11:33:39;13.38;;;6.05;;
21501;SDS011;27639;48.674;9.242;2023-06-22T11:36:04;9.23;;;5.85;;
21501;SDS011;27639;48.674;9.242;2023-06-22T11:38:30;13.73;;;5.80;;
21501;SDS011;27639;48.674;9.242;2023-06-22T11:40:57;9.85;;;5.10;;
21501;SDS011;27639;48.674;9.242;2023-06-22T11:43:23;8.95;;;5.43;;
21501;SDS011;27639;48.674;9.242;2023-06-22T11:45:49;11.25;;;5.03;;
21501;SDS011;27639;48.674;9.242;2023-06-22T11:48:15;12.32;;;5.80;;
21501;SDS011;27639;48.674;9.242;2023-06-22T11:50:41;12.63;;;5.65;;
21501;SDS011;27639;48.674;9.242;2023-06-22T11:53:06;12.52;;;6.07;;
21501;SDS011;27639;48.674;9.242;2023-06-22T11:55:32;12.27;;;5.90;;
21501;SDS011;27639;48.674;9.242;2023-06-22T11:57:57;11.40;;;6.13;;
21501;SDS011;27639;48.674;9.242;2023-06-22T12:00:25;10.23;;;5.25;;
21501;SDS011;27639;48.674;9.242;2023-06-22T12:02:51;10.02;;;5.60;;
21501;SDS011;27639;48.674;9.242;2023-06-22T12:05:20;10.65;;;5.60;;
21501;SDS011;27639;48.674;9.242;2023-06-22T12:07:47;11.63;;;5.70;;
21501;SDS011;27639;48.674;9.242;2023-06-22T12:10:13;11.13;;;5.85;;
21501;SDS011;27639;48.674;9.242;2023-06-22T12:12:39;11.43;;;5.40;;
21501;SDS011;27639;48.674;9.242;2023-06-22T12:15:04;14.15;;;5.28;;
21501;SDS011;27639;48.674;9.242;2023-06-22T12:17:31;11.20;;;5.78;;
21501;SDS011;27639;48.674;9.242;2023-06-22T12:19:56;8.25;;;5.60;;
21501;SDS011;27639;48.674;9.242;2023-06-22T12:22:22;14.35;;;6.05;;
21501;SDS011;27639;48.674;9.242;2023-06-22T12:24:47;12.98;;;5.65;;
21501;SDS011;27639;48.674;9.242;2023-06-22T12:27:14;10.90;;;5.60;;
21501;SDS011;27639;48.674;9.242;2023-06-22T12:29:42;12.43;;;5.50;;
21501;SDS011;27639;48.674;9.242;2023-06-22T12:32:10;14.23;;;5.65;;
21501;SDS011;27639;48.674;9.242;2023-06-22T12:34:38;11.57;;;5.25;;
21501;SDS011;27639;48.674;9.242;2023-06-22T12:37:04;11.13;;;5.30;;
21501;SDS011;27639;48.674;9.242;2023-06-22T12:39:30;11.63;;;5.80;;
21501;SDS011;27639;48.674;9.242;2023-06-22T12:41:56;9.70;;;5.35;;
21501;SDS011;27639;48.674;9.242;2023-06-22T12:44:22;8.20;;;5.13;;
21501;SDS011;27639;48.674;9.242;2023-06-22T12:46:48;9.82;;;5.03;;
21501;SDS011;27639;48.674;9.242;2023-06-22T12:49:13;11.20;;;5.40;;
21501;SDS011;27639;48.674;9.242;2023-06-22T12:51:40;11.70;;;5.93;;
21501;SDS011;27639;48.674;9.242;2023-06-22T12:54:07;15.45;;;6.53;;
21501;SDS011;27639;48.674;9.242;2023-06-22T12:56:32;10.93;;;5.80;;
21501;SDS011;27639;48.674;9.242;2023-06-22T12:58:58;13.20;;;6.15;;
21501;SDS011;27639;48.674;9.242;2023-06-22T13:01:26;9.02;;;5.43;;
21501;SDS011;27639;48.674;9.242;2023-06-22T13:03:52;12.85;;;5.88;;
21501;SDS011;27639;48.674;9.242;2023-06-22T13:06:18;10.32;;;5.75;;
21501;SDS011;27639;48.674;9.242;2023-06-22T13:08:43;11.35;;;5.35;;
21501;SDS011;27639;48.674;9.242;2023-06-22T13:11:09;9.93;;;5.85;;
21501;SDS011;27639;48.674;9.242;2023-06-22T13:13:35;12.30;;;6.38;;
21501;SDS011;27639;48.674;9.242;2023-06-22T13:16:00;9.70;;;5.22;;
21501;SDS011;27639;48.674;9.242;2023-06-22T13:18:26;13.52;;;6.32;;
21501;SDS011;27639;48.674;9.242;2023-06-22T13:20:52;11.05;;;5.57;;
21501;SDS011;27639;48.674;9.242;2023-06-22T13:23:19;11.48;;;5.07;;
21501;SDS011;27639;48.674;9.242;2023-06-22T13:25:46;12.18;;;5.80;;
21501;SDS011;27639;48.674;9.242;2023-06-22T13:28:11;11.80;;;5.15;;
21501;SDS011;27639;48.674;9.242;2023-06-22T13:30:38;12.40;;;5.43;;
21501;SDS011;27639;48.674;9.242;2023-06-22T13:33:05;9.77;;;5.07;;
21501;SDS011;27639;48.674;9.242;2023-06-22T13:35:31;10.35;;;5.43;;
21501;SDS011;27639;48.674;9.242;2023-06-22T13:37:56;10.70;;;5.65;;
21501;SDS011;27639;48.674;9.242;2023-06-22T13:40:22;13.13;;;5.22;;
21501;SDS011;27639;48.674;9.242;2023-06-22T13:42:48;10.35;;;5.05;;
21501;SDS011;27639;48.674;9.242;2023-06-22T13:45:13;10.93;;;5.15;;
21501;SDS011;27639;48.674;9.242;2023-06-22T13:47:41;9.90;;;5.07;;
21501;SDS011;27639;48.674;9.242;2023-06-22T13:50:07;10.98;;;5.15;;
21501;SDS011;27639;48.674;9.242;2023-06-22T13:52:33;13.07;;;5.78;;
21501;SDS011;27639;48.674;9.242;2023-06-22T13:54:58;13.00;;;5.47;;
21501;SDS011;27639;48.674;9.242;2023-06-22T13:57:24;13.80;;;5.30;;
21501;SDS011;27639;48.674;9.242;2023-06-22T13:59:49;14.15;;;5.75;;
21501;SDS011;27639;48.674;9.242;2023-06-22T14:02:15;16.00;;;5.95;;
21501;SDS011;27639;48.674;9.242;2023-06-22T14:04:40;12.23;;;5.50;;
21501;SDS011;27639;48.674;9.242;2023-06-22T14:07:06;16.33;;;5.57;;
21501;SDS011;27639;48.674;9.242;2023-06-22T14:09:32;9.80;;;5.00;;
21501;SDS011;27639;48.674;9.242;2023-06-22T14:11:57;11.57;;;4.93;;
21501;SDS011;27639;48.674;9.242;2023-06-22T14:14:23;10.95;;;5.80;;
21501;SDS011;27639;48.674;9.242;2023-06-22T14:16:48;11.07;;;5.45;;
21501;SDS011;27639;48.674;9.242;2023-06-22T14:19:16;10.95;;;5.47;;
21501;SDS011;27639;48.674;9.242;2023-06-22T14:21:42;10.65;;;5.78;;
21501;SDS011;27639;48.674;9.242;2023-06-22T14:24:08;11.93;;;6.18;;
21501;SDS011;27639;48.674;9.242;2023-06-22T14:26:33;14.63;;;5.68;;
21501;SDS011;27639;48.674;9.242;2023-06-22T14:28:59;12.00;;;5.35;;
21501;SDS011;27639;48.674;9.242;2023-06-22T14:31:24;14.43;;;5.65;;
21501;SDS011;27639;48.674;9.242;2023-06-22T14:33:50;12.10;;;5.38;;
21501;SDS011;27639;48.674;9.242;2023-06-22T14:36:16;11.18;;;5.82;;
21501;SDS011;27639;48.674;9.242;2023-06-22T14:38:42;11.35;;;5.45;;
21501;SDS011;27639;48.674;9.242;2023-06-22T14:41:09;16.05;;;6.15;;
21501;SDS011;27639;48.674;9.242;2023-06-22T14:43:34;11.70;;;5.38;;